W81 weather

Crewe Municipal Airport
Crewe, Virginia, United States

Public forecast

Using degrees Fahrenheit for public forecast. Weather courtesy of forecast.io.

METAR (pilot weather report)

Retrieved 2019/07/21 18:35 UTC (0 seconds ago):

KW81 211835Z AUTO 19004KT 10SM SCT045 SCT050 SCT070 A2992 RMK AO1

TAF (pilot weather forecast)

Closest forecast is Richmond International Airport, 42.0 nm (77.7 km) ENE. Retrieved 2019/07/21 18:22 UTC (0 seconds ago):

TAF KRIC 211720Z 2118/2218 30006KT P6SM SCT050 TEMPO 2119/2123 BKN050 FM220100 22005KT P6SM SCT150 FM221400 23010KT P6SM SCT050